createdAt,value
2024-04-23T00:00:48.807Z,3.40
2024-04-23T00:03:41.581Z,4.50
2024-04-23T00:06:14.382Z,3.90
2024-04-23T00:08:47.125Z,3.90
2024-04-23T00:11:20.461Z,4.40
2024-04-23T00:13:53.370Z,5.60
2024-04-23T00:16:26.313Z,4.90
2024-04-23T00:18:59.191Z,5.60
2024-04-23T00:21:32.471Z,4.90
2024-04-23T00:24:05.707Z,4.50
2024-04-23T00:26:38.541Z,4.80
2024-04-23T00:29:13.438Z,4.90
2024-04-23T00:31:46.839Z,4.40
2024-04-23T00:34:20.017Z,4.60
2024-04-23T00:36:56.915Z,3.70
2024-04-23T00:39:30.213Z,3.50
2024-04-23T00:42:02.931Z,3.80
2024-04-23T00:44:35.429Z,3.70
2024-04-23T00:47:09.295Z,3.80
2024-04-23T00:49:42.816Z,3.80
2024-04-23T00:52:16.948Z,3.90
2024-04-23T00:54:50.367Z,3.50
2024-04-23T00:57:23.888Z,3.20
2024-04-23T00:59:56.932Z,2.90
2024-04-23T01:02:30.107Z,3.00
2024-04-23T01:05:03.530Z,3.40
2024-04-23T01:07:36.866Z,3.50
2024-04-23T01:10:10.794Z,3.30
2024-04-23T01:12:44.237Z,3.60
2024-04-23T01:15:17.499Z,3.50
2024-04-23T01:17:50.751Z,4.30
2024-04-23T01:20:24.321Z,3.40
2024-04-23T01:23:04.979Z,2.90
2024-04-23T01:25:38.493Z,3.30
2024-04-23T01:28:11.697Z,3.00
2024-04-23T01:30:45.235Z,3.10
2024-04-23T01:33:20.607Z,3.20
2024-04-23T01:35:53.888Z,3.00
2024-04-23T01:38:27.082Z,3.10
2024-04-23T01:40:59.952Z,2.90
2024-04-23T01:43:33.704Z,2.60
2024-04-23T01:46:06.625Z,3.40
2024-04-23T01:48:40.118Z,2.70
2024-04-23T01:51:13.392Z,3.20
2024-04-23T01:53:46.365Z,3.30
2024-04-23T01:56:19.194Z,3.00
2024-04-23T01:58:52.014Z,1.60
2024-04-23T02:01:25.705Z,3.20
2024-04-23T02:03:58.538Z,2.50
2024-04-23T02:06:32.188Z,2.50
2024-04-23T02:09:05.952Z,3.30
2024-04-23T02:11:39.297Z,3.20
2024-04-23T02:14:13.152Z,2.40
2024-04-23T02:16:46.018Z,3.30
2024-04-23T02:19:19.012Z,2.60
2024-04-23T02:21:51.960Z,3.00
2024-04-23T02:24:25.426Z,3.00
2024-04-23T02:26:58.234Z,3.10
2024-04-23T02:29:31.278Z,2.00
2024-04-23T02:32:05.115Z,3.80
2024-04-23T02:34:38.614Z,2.50
2024-04-23T02:37:12.183Z,2.50
2024-04-23T02:39:45.143Z,3.60
2024-04-23T02:42:18.170Z,3.10
2024-04-23T02:44:53.895Z,2.90
2024-04-23T02:47:27.165Z,2.40
2024-04-23T02:50:00.633Z,3.10
2024-04-23T02:52:36.499Z,3.90
2024-04-23T02:55:11.002Z,2.20
2024-04-23T02:57:43.793Z,3.30
2024-04-23T03:00:18.407Z,3.30
2024-04-23T03:02:51.401Z,2.70
2024-04-23T03:05:25.462Z,2.70
2024-04-23T03:07:59.467Z,2.50
2024-04-23T03:10:32.354Z,2.10
2024-04-23T03:13:06.972Z,2.20
2024-04-23T03:15:39.844Z,1.50
2024-04-23T03:18:13.518Z,2.40
2024-04-23T03:20:46.403Z,2.10
2024-04-23T03:23:19.692Z,1.40
2024-04-23T03:25:53.136Z,2.40
2024-04-23T03:28:26.121Z,1.90
2024-04-23T03:30:59.255Z,1.00
2024-04-23T03:33:33.700Z,2.10
2024-04-23T03:36:09.213Z,1.90
2024-04-23T03:38:41.999Z,1.90
2024-04-23T03:41:15.598Z,3.50
2024-04-23T03:43:50.762Z,1.40
2024-04-23T03:46:24.915Z,2.30
2024-04-23T03:48:57.467Z,2.30
2024-04-23T03:51:30.516Z,1.90
2024-04-23T03:54:03.066Z,2.10
2024-04-23T03:56:38.917Z,1.50
2024-04-23T03:59:12.943Z,1.90
2024-04-23T04:01:46.439Z,2.10
2024-04-23T04:04:36.754Z,1.40
2024-04-23T04:07:10.285Z,2.10
2024-04-23T04:09:44.051Z,1.70
2024-04-23T04:12:17.498Z,1.90
2024-04-23T04:14:50.924Z,1.20
2024-04-23T04:17:23.918Z,1.70
2024-04-23T04:19:56.917Z,1.20
2024-04-23T04:22:29.916Z,1.50
2024-04-23T04:25:02.974Z,3.10
2024-04-23T04:27:35.848Z,1.50
2024-04-23T04:30:11.579Z,1.50
2024-04-23T04:32:44.270Z,1.80
2024-04-23T04:35:17.378Z,1.40
2024-04-23T04:37:50.144Z,1.50
2024-04-23T04:40:23.079Z,1.60
2024-04-23T04:42:57.411Z,0.80
2024-04-23T04:45:30.506Z,1.50
2024-04-23T04:48:03.529Z,1.30
2024-04-23T04:50:36.687Z,1.40
2024-04-23T04:53:11.405Z,1.90
2024-04-23T04:55:44.518Z,2.80
2024-04-23T04:58:17.261Z,2.10
2024-04-23T05:00:50.042Z,1.70
2024-04-23T05:03:23.268Z,2.50
2024-04-23T05:05:58.369Z,1.60
2024-04-23T05:08:33.882Z,1.90
2024-04-23T05:11:07.009Z,1.30
2024-04-23T05:13:42.443Z,1.90
2024-04-23T05:16:15.285Z,2.20
2024-04-23T05:18:48.059Z,1.60
2024-04-23T05:21:21.088Z,1.40
2024-04-23T05:23:53.808Z,1.40
2024-04-23T05:26:26.688Z,1.00
2024-04-23T05:29:00.337Z,1.20
2024-04-23T05:31:51.471Z,1.40
2024-04-23T05:34:24.304Z,1.20
2024-04-23T05:36:57.067Z,1.70
2024-04-23T05:39:30.354Z,0.90
2024-04-23T05:42:03.072Z,1.30
2024-04-23T05:44:39.025Z,1.40
2024-04-23T05:47:11.940Z,2.10
2024-04-23T05:50:23.061Z,1.20
2024-04-23T05:53:34.438Z,0.90
2024-04-23T05:56:07.226Z,1.60
2024-04-23T05:58:39.987Z,2.20
2024-04-23T06:01:12.858Z,1.50
2024-04-23T06:03:45.539Z,1.10
2024-04-23T06:06:18.270Z,1.40
2024-04-23T06:08:51.044Z,0.90
2024-04-23T06:11:23.657Z,0.80
2024-04-23T06:14:09.337Z,1.70
2024-04-23T06:16:42.792Z,2.50
2024-04-23T06:19:15.598Z,1.20
2024-04-23T06:21:48.103Z,1.50
2024-04-23T06:24:20.814Z,0.80
2024-04-23T06:26:53.772Z,1.50
2024-04-23T06:29:26.472Z,1.70
2024-04-23T06:31:59.593Z,1.50
2024-04-23T06:34:32.370Z,1.90
2024-04-23T06:37:05.172Z,3.20
2024-04-23T06:39:38.582Z,2.00
2024-04-23T06:42:11.957Z,1.60
2024-04-23T06:44:44.899Z,1.10
2024-04-23T06:47:18.519Z,2.20
2024-04-23T06:49:51.511Z,1.70
2024-04-23T06:52:27.032Z,1.70
2024-04-23T06:55:02.653Z,2.20
2024-04-23T06:57:35.507Z,1.00
2024-04-23T07:00:10.442Z,1.30
2024-04-23T07:02:43.219Z,1.70
2024-04-23T07:05:16.255Z,2.50
2024-04-23T07:07:49.156Z,1.00
2024-04-23T07:10:22.063Z,1.80
2024-04-23T07:12:55.381Z,1.90
2024-04-23T07:15:28.383Z,1.70
2024-04-23T07:18:01.744Z,1.70
2024-04-23T07:20:36.699Z,1.60
2024-04-23T07:23:09.818Z,1.80
2024-04-23T07:25:42.568Z,2.10
2024-04-23T07:28:15.336Z,1.80
2024-04-23T07:30:48.266Z,2.10
2024-04-23T07:33:21.199Z,2.20
2024-04-23T07:35:54.207Z,2.20
2024-04-23T07:38:27.764Z,2.00
2024-04-23T07:41:01.875Z,2.20
2024-04-23T07:43:38.466Z,2.40
2024-04-23T07:46:12.325Z,2.30
2024-04-23T07:49:03.425Z,1.80
2024-04-23T07:51:37.089Z,1.80
2024-04-23T07:54:10.180Z,1.50
2024-04-23T07:56:44.732Z,1.50
2024-04-23T07:59:20.906Z,2.10
2024-04-23T08:01:55.256Z,2.50
2024-04-23T08:04:28.218Z,2.40
2024-04-23T08:07:00.781Z,1.90
2024-04-23T08:09:33.474Z,1.60
2024-04-23T08:12:10.539Z,1.40
2024-04-23T08:14:43.507Z,1.70
2024-04-23T08:17:20.947Z,1.20
2024-04-23T08:19:54.443Z,2.10
2024-04-23T08:22:28.229Z,1.80
2024-04-23T08:25:09.343Z,1.80
2024-04-23T08:27:42.275Z,2.20
2024-04-23T08:30:21.655Z,2.30
2024-04-23T08:32:54.941Z,0.80
2024-04-23T08:35:33.385Z,1.40
2024-04-23T08:38:06.245Z,1.70
2024-04-23T08:40:40.080Z,1.90
2024-04-23T08:43:22.179Z,1.50
2024-04-23T08:45:56.129Z,1.20
2024-04-23T08:48:37.689Z,2.00
2024-04-23T08:51:12.471Z,2.20
2024-04-23T08:53:46.394Z,1.30
2024-04-23T08:56:24.523Z,0.90
2024-04-23T08:58:57.325Z,1.10
2024-04-23T09:01:34.311Z,1.60
2024-04-23T09:04:07.755Z,2.10
2024-04-23T09:06:40.821Z,2.00
2024-04-23T09:09:17.081Z,0.90
2024-04-23T09:11:50.601Z,1.50
2024-04-23T09:14:23.654Z,0.80
2024-04-23T09:16:58.552Z,1.30
2024-04-23T09:19:34.539Z,1.50
2024-04-23T09:22:09.629Z,1.20
2024-04-23T09:24:42.731Z,0.90
2024-04-23T09:27:16.066Z,1.30
2024-04-23T09:29:48.937Z,1.30
2024-04-23T09:32:22.810Z,0.90
2024-04-23T09:35:02.410Z,1.60
2024-04-23T09:37:35.628Z,1.30
2024-04-23T09:40:10.365Z,1.40
2024-04-23T09:42:43.146Z,3.00
2024-04-23T09:45:18.477Z,3.60
2024-04-23T09:47:52.404Z,2.00
2024-04-23T09:50:30.162Z,1.60
2024-04-23T09:53:11.366Z,1.50
2024-04-23T09:55:44.747Z,1.30
2024-04-23T09:58:18.547Z,1.30
2024-04-23T10:00:51.928Z,1.80
2024-04-23T10:03:29.060Z,0.90
2024-04-23T10:06:05.949Z,1.30
2024-04-23T10:08:42.439Z,1.10
2024-04-23T10:13:54.527Z,1.40
2024-04-23T10:16:31.307Z,2.40
2024-04-23T10:19:08.464Z,1.20
2024-04-23T10:21:43.587Z,1.60
2024-04-23T10:24:16.912Z,1.80
2024-04-23T10:26:50.215Z,2.10
2024-04-23T10:29:23.487Z,1.70
2024-04-23T10:31:56.213Z,1.20
2024-04-23T10:34:31.357Z,1.80
2024-04-23T10:37:06.914Z,1.30
2024-04-23T10:39:40.199Z,1.90
2024-04-23T10:42:14.281Z,2.30
2024-04-23T10:44:47.885Z,2.00
2024-04-23T10:47:20.901Z,2.90
2024-04-23T10:49:56.938Z,4.70
2024-04-23T10:55:01.320Z,2.60
2024-04-23T10:57:34.880Z,2.00
2024-04-23T11:00:11.755Z,1.20
2024-04-23T11:02:44.633Z,3.40
2024-04-23T11:05:22.694Z,2.40
2024-04-23T11:07:56.287Z,2.50
2024-04-23T11:10:29.844Z,2.80
2024-04-23T11:13:06.965Z,1.50
2024-04-23T11:15:40.421Z,1.60
2024-04-23T11:18:25.132Z,1.20
2024-04-23T11:20:59.900Z,1.10
2024-04-23T11:23:34.453Z,1.10
2024-04-23T11:26:07.787Z,1.70
2024-04-23T11:28:41.792Z,2.60
2024-04-23T11:31:15.262Z,2.60
2024-04-23T11:33:49.023Z,1.50
2024-04-23T11:36:30.029Z,1.10
2024-04-23T11:39:09.199Z,1.00
2024-04-23T11:41:45.335Z,2.50
2024-04-23T11:44:19.265Z,1.70
2024-04-23T11:46:55.518Z,0.90
2024-04-23T11:49:30.251Z,2.70
2024-04-23T11:52:03.805Z,1.80
2024-04-23T11:54:38.730Z,1.90
2024-04-23T11:57:11.639Z,2.70
2024-04-23T11:59:45.473Z,2.00
2024-04-23T12:02:18.251Z,1.90
2024-04-23T12:04:51.389Z,1.30
2024-04-23T12:07:25.464Z,0.80
2024-04-23T12:10:05.199Z,0.50
2024-04-23T12:12:39.101Z,1.90
2024-04-23T12:15:12.612Z,1.40
2024-04-23T12:17:45.689Z,1.20
2024-04-23T12:20:19.101Z,0.90
2024-04-23T12:22:52.607Z,1.00
2024-04-23T12:25:26.509Z,2.00
2024-04-23T12:27:59.739Z,0.70
2024-04-23T12:30:35.073Z,1.20
2024-04-23T12:33:15.294Z,0.90
2024-04-23T12:35:48.599Z,2.10
2024-04-23T12:38:21.571Z,1.70
2024-04-23T12:40:56.629Z,1.60
2024-04-23T12:43:32.254Z,2.10
2024-04-23T12:46:06.357Z,1.70
2024-04-23T12:48:39.404Z,1.40
2024-04-23T12:51:13.304Z,1.60
2024-04-23T12:53:46.454Z,2.20
2024-04-23T12:56:19.703Z,1.90
2024-04-23T12:58:56.989Z,0.70
2024-04-23T13:01:39.049Z,1.60
2024-04-23T13:04:19.161Z,1.70
2024-04-23T13:06:52.161Z,1.60
2024-04-23T13:09:25.540Z,2.10
2024-04-23T13:12:01.008Z,1.70
2024-04-23T13:14:34.298Z,2.20
2024-04-23T13:17:08.039Z,1.40
2024-04-23T13:19:45.356Z,1.60
2024-04-23T13:22:23.428Z,5.40
2024-04-23T13:24:56.267Z,1.80
2024-04-23T13:27:29.135Z,1.80
2024-04-23T13:30:02.200Z,1.80
2024-04-23T13:32:38.460Z,1.50
2024-04-23T13:35:13.211Z,1.90
2024-04-23T13:37:46.748Z,3.00
2024-04-23T13:40:20.181Z,1.60
2024-04-23T13:42:53.229Z,1.20
2024-04-23T13:45:26.632Z,1.60
2024-04-23T13:48:01.029Z,1.60
2024-04-23T13:50:33.969Z,1.60
2024-04-23T13:53:08.350Z,2.10
2024-04-23T13:55:41.141Z,1.10
2024-04-23T13:58:14.231Z,1.10
2024-04-23T14:00:47.411Z,1.20
2024-04-23T14:03:21.160Z,1.90
2024-04-23T14:05:54.052Z,1.40
2024-04-23T14:08:27.088Z,1.60
2024-04-23T14:11:03.818Z,2.50
2024-04-23T14:13:38.205Z,1.90
2024-04-23T14:16:17.351Z,1.50
2024-04-23T14:18:50.599Z,2.30
2024-04-23T14:21:23.469Z,1.50
2024-04-23T14:23:56.662Z,0.90
2024-04-23T14:26:29.845Z,1.60
2024-04-23T14:29:06.084Z,1.90
2024-04-23T14:31:40.111Z,2.10
2024-04-23T14:34:13.213Z,2.00
2024-04-23T14:36:46.316Z,2.50
2024-04-23T14:39:19.466Z,1.00
2024-04-23T14:41:52.635Z,1.00
2024-04-23T14:44:26.178Z,1.60
2024-04-23T14:47:00.773Z,1.60
2024-04-23T14:49:33.817Z,1.60
2024-04-23T14:52:07.508Z,0.90
2024-04-23T14:54:40.544Z,1.10
2024-04-23T14:57:14.088Z,1.60
2024-04-23T14:59:49.422Z,1.10
2024-04-23T15:02:25.864Z,1.40
2024-04-23T15:04:59.266Z,2.80
2024-04-23T15:07:33.433Z,1.70
2024-04-23T15:10:07.544Z,2.10
2024-04-23T15:12:40.936Z,1.30
2024-04-23T15:15:14.322Z,1.70
2024-04-23T15:17:47.385Z,2.50
2024-04-23T15:20:20.730Z,2.30
2024-04-23T15:22:56.023Z,2.60
2024-04-23T15:25:30.166Z,1.60
2024-04-23T15:28:03.228Z,2.50
2024-04-23T15:30:36.145Z,3.20
2024-04-23T15:33:09.522Z,2.80
2024-04-23T15:35:42.059Z,2.50
2024-04-23T15:38:16.007Z,3.00
2024-04-23T15:40:48.954Z,3.20
2024-04-23T15:43:22.036Z,3.60
2024-04-23T15:45:55.479Z,3.00
2024-04-23T15:48:29.158Z,2.30
2024-04-23T15:51:02.344Z,2.30
2024-04-23T15:53:35.500Z,5.60
2024-04-23T15:56:12.618Z,4.70
2024-04-23T15:58:45.726Z,3.00
2024-04-23T16:01:18.868Z,3.50
2024-04-23T16:03:51.852Z,3.20
2024-04-23T16:06:26.086Z,3.00
2024-04-23T16:09:00.991Z,2.00
2024-04-23T16:11:35.163Z,4.50
2024-04-23T16:14:08.955Z,4.40
2024-04-23T16:16:41.599Z,5.20
2024-04-23T16:19:14.604Z,3.20
2024-04-23T16:21:47.352Z,3.20
2024-04-23T16:24:19.921Z,3.20
2024-04-23T16:26:53.007Z,2.40
2024-04-23T16:29:25.916Z,4.30
2024-04-23T16:31:58.695Z,2.50
2024-04-23T16:34:32.577Z,3.30
2024-04-23T16:37:05.777Z,3.10
2024-04-23T16:39:38.596Z,3.00
2024-04-23T16:42:11.930Z,2.70
2024-04-23T16:44:44.984Z,3.30
2024-04-23T16:47:18.429Z,3.90
2024-04-23T16:49:51.781Z,6.00
2024-04-23T16:52:24.497Z,7.40
2024-04-23T16:54:57.984Z,9.00
2024-04-23T16:57:31.623Z,5.40
2024-04-23T17:00:05.513Z,5.60
2024-04-23T17:02:38.730Z,3.40
2024-04-23T17:05:12.155Z,3.00
2024-04-23T17:07:45.337Z,3.00
2024-04-23T17:10:18.635Z,4.10
2024-04-23T17:12:52.037Z,3.30
2024-04-23T17:15:27.980Z,2.80
2024-04-23T17:18:01.228Z,4.10
2024-04-23T17:20:37.777Z,4.00
2024-04-23T17:25:45.389Z,3.20
2024-04-23T17:28:19.607Z,3.00
2024-04-23T17:30:53.396Z,2.90
2024-04-23T17:33:29.524Z,2.50
2024-04-23T17:36:06.385Z,2.50
2024-04-23T17:38:41.743Z,4.10
2024-04-23T17:41:14.392Z,5.20
2024-04-23T17:43:47.347Z,4.10
2024-04-23T17:46:22.108Z,3.80
2024-04-23T17:48:55.672Z,6.20
2024-04-23T17:51:28.454Z,5.80
2024-04-23T17:54:01.879Z,6.20
2024-04-23T17:56:35.487Z,4.70
2024-04-23T17:59:09.249Z,5.30
2024-04-23T18:01:42.420Z,4.50
2024-04-23T18:04:15.898Z,4.80
2024-04-23T18:06:48.857Z,4.80
2024-04-23T18:09:21.950Z,4.60
2024-04-23T18:11:54.890Z,4.10
2024-04-23T18:14:27.729Z,3.20
2024-04-23T18:17:03.589Z,2.90
2024-04-23T18:19:36.435Z,3.10
2024-04-23T18:22:09.516Z,3.50
2024-04-23T18:24:42.526Z,3.20
2024-04-23T18:27:18.988Z,3.40
2024-04-23T18:29:52.188Z,4.00
2024-04-23T18:32:25.302Z,3.50
2024-04-23T18:34:58.315Z,3.60
2024-04-23T18:37:31.225Z,4.10
2024-04-23T18:40:04.087Z,4.30
2024-04-23T18:42:37.852Z,4.30
2024-04-23T18:45:11.610Z,4.30
2024-04-23T18:47:44.573Z,2.50
2024-04-23T18:50:18.141Z,2.00
2024-04-23T18:52:52.166Z,2.30
2024-04-23T18:55:30.338Z,1.90
2024-04-23T18:58:03.575Z,1.70
2024-04-23T19:00:36.682Z,4.20
2024-04-23T19:03:09.587Z,4.20
2024-04-23T19:05:42.660Z,2.90
2024-04-23T19:08:15.477Z,1.40
2024-04-23T19:10:48.606Z,1.90
2024-04-23T19:13:21.376Z,6.10
2024-04-23T19:15:53.871Z,2.50
2024-04-23T19:18:26.513Z,2.10
2024-04-23T19:21:01.699Z,1.50
2024-04-23T19:23:35.034Z,1.80
2024-04-23T19:26:08.685Z,1.40
2024-04-23T19:28:41.410Z,1.80
2024-04-23T19:31:14.636Z,1.60
2024-04-23T19:33:47.440Z,1.50
2024-04-23T19:36:20.249Z,1.60
2024-04-23T19:38:53.058Z,3.30
2024-04-23T19:41:25.831Z,2.00
2024-04-23T19:43:58.767Z,2.10
2024-04-23T19:46:33.909Z,2.50
2024-04-23T19:49:07.336Z,2.00
2024-04-23T19:51:40.419Z,1.60
2024-04-23T19:54:13.272Z,1.70
2024-04-23T19:56:59.938Z,1.70
2024-04-23T19:59:32.564Z,1.80
2024-04-23T20:02:05.808Z,1.80
2024-04-23T20:04:39.101Z,1.80
2024-04-23T20:07:12.087Z,2.10
2024-04-23T20:09:48.243Z,1.90
2024-04-23T20:12:21.277Z,2.10
2024-04-23T20:14:53.910Z,2.10
2024-04-23T20:17:26.969Z,1.60
2024-04-23T20:20:01.336Z,2.10
2024-04-23T20:22:34.518Z,1.40
2024-04-23T20:25:09.432Z,1.50
2024-04-23T20:27:42.746Z,2.10
2024-04-23T20:30:16.070Z,2.30
2024-04-23T20:32:49.199Z,1.70
2024-04-23T20:35:22.463Z,1.70
2024-04-23T20:37:55.219Z,1.60
2024-04-23T20:40:28.205Z,1.80
2024-04-23T20:43:00.761Z,2.20
2024-04-23T20:45:33.510Z,1.40
2024-04-23T20:48:08.039Z,1.50
2024-04-23T20:50:41.778Z,1.60
2024-04-23T20:53:14.578Z,1.90
2024-04-23T20:55:47.809Z,1.70
2024-04-23T20:58:22.163Z,2.70
2024-04-23T21:00:54.922Z,1.60
2024-04-23T21:03:27.671Z,1.50
2024-04-23T21:06:00.783Z,1.20
2024-04-23T21:08:33.733Z,1.70
2024-04-23T21:11:07.085Z,1.80
2024-04-23T21:13:40.080Z,2.00
2024-04-23T21:16:14.082Z,2.10
2024-04-23T21:18:48.890Z,1.40
2024-04-23T21:21:22.249Z,2.30
2024-04-23T21:23:54.933Z,2.60
2024-04-23T21:26:28.542Z,2.50
2024-04-23T21:29:01.687Z,2.30
2024-04-23T21:31:34.721Z,1.70
2024-04-23T21:34:08.785Z,1.50
2024-04-23T21:36:41.818Z,2.70
2024-04-23T21:39:14.852Z,1.80
2024-04-23T21:41:47.528Z,1.90
2024-04-23T21:44:20.923Z,2.30
2024-04-23T21:46:54.250Z,3.30
2024-04-23T21:49:28.021Z,2.70
2024-04-23T21:52:22.396Z,2.40
2024-04-23T21:54:55.995Z,2.50
2024-04-23T21:57:31.875Z,2.50
2024-04-23T22:00:06.407Z,2.40
2024-04-23T22:02:39.920Z,3.20
2024-04-23T22:05:14.182Z,2.70
2024-04-23T22:07:47.590Z,3.00
2024-04-23T22:10:23.210Z,2.60
2024-04-23T22:12:57.916Z,2.40
2024-04-23T22:15:38.070Z,2.80
2024-04-23T22:18:15.655Z,2.20
2024-04-23T22:20:48.657Z,3.40
2024-04-23T22:23:21.966Z,3.10
2024-04-23T22:25:55.316Z,2.80
2024-04-23T22:28:28.888Z,3.00
2024-04-23T22:31:04.991Z,3.50
2024-04-23T22:33:38.002Z,2.80
2024-04-23T22:36:11.710Z,2.80
2024-04-23T22:38:45.159Z,3.50
2024-04-23T22:41:18.308Z,2.90
2024-04-23T22:43:51.296Z,3.20
2024-04-23T22:46:24.236Z,3.60
2024-04-23T22:48:58.023Z,3.70
2024-04-23T22:51:31.124Z,3.10
2024-04-23T22:54:04.532Z,2.30
2024-04-23T22:56:37.500Z,3.40
2024-04-23T22:59:10.702Z,3.80
2024-04-23T23:01:44.615Z,2.70
2024-04-23T23:04:17.784Z,3.70
2024-04-23T23:06:50.851Z,3.00
2024-04-23T23:09:23.813Z,3.40
2024-04-23T23:11:57.220Z,2.40
2024-04-23T23:14:30.216Z,2.70
2024-04-23T23:17:03.443Z,2.90
2024-04-23T23:19:36.239Z,2.50
2024-04-23T23:22:09.063Z,3.50
2024-04-23T23:24:42.493Z,2.60
2024-04-23T23:27:15.923Z,3.20
2024-04-23T23:29:48.561Z,4.30
2024-04-23T23:32:21.619Z,3.50
2024-04-23T23:34:54.740Z,3.80
2024-04-23T23:37:27.525Z,3.70
2024-04-23T23:40:00.574Z,3.70
2024-04-23T23:42:33.562Z,3.60
2024-04-23T23:45:07.810Z,4.90
2024-04-23T23:47:41.165Z,4.60
2024-04-23T23:50:14.380Z,4.80
2024-04-23T23:52:47.369Z,3.50
2024-04-23T23:55:20.370Z,2.80
2024-04-23T23:57:54.602Z,3.40
